createdAt,value
2022-11-20T04:50:44.057Z,25.40
2022-11-20T04:53:12.818Z,27.47
2022-11-20T04:55:41.752Z,21.77
2022-11-20T04:58:10.364Z,29.10
2022-11-20T05:00:40.997Z,36.43
2022-11-20T05:03:09.993Z,27.97
2022-11-20T05:05:38.573Z,25.30
2022-11-20T05:08:15.125Z,30.03
2022-11-20T05:10:43.526Z,26.70
2022-11-20T05:13:11.938Z,30.50
2022-11-20T05:15:40.322Z,31.00
2022-11-20T05:18:09.133Z,31.80
2022-11-20T05:20:38.426Z,27.43
2022-11-20T05:23:08.106Z,29.53
2022-11-20T05:25:38.401Z,28.13
2022-11-20T05:28:06.879Z,30.50
2022-11-20T05:30:35.223Z,27.83
2022-11-20T05:33:03.587Z,34.73
2022-11-20T05:35:31.979Z,34.03
2022-11-20T05:38:00.335Z,32.63
2022-11-20T05:40:28.822Z,32.23
2022-11-20T05:42:58.627Z,32.50
2022-11-20T05:45:27.046Z,36.60
2022-11-20T05:47:59.674Z,34.90
2022-11-20T05:50:28.385Z,37.77
2022-11-20T05:53:00.263Z,35.33
2022-11-20T05:55:28.941Z,28.17
2022-11-20T05:57:59.720Z,36.27
2022-11-20T06:00:28.085Z,33.47
2022-11-20T06:02:56.720Z,31.17
2022-11-20T06:05:25.092Z,36.17
2022-11-20T06:07:53.472Z,31.93
2022-11-20T06:10:21.810Z,34.77
2022-11-20T06:12:50.079Z,59.23
2022-11-20T06:15:19.962Z,36.53
2022-11-20T06:17:49.314Z,33.23
2022-11-20T06:20:17.718Z,32.13
2022-11-20T06:22:46.138Z,33.20
2022-11-20T06:25:14.643Z,36.60
2022-11-20T06:27:42.892Z,40.23
2022-11-20T06:30:12.624Z,36.97
2022-11-20T06:32:42.352Z,33.53
2022-11-20T06:35:11.492Z,26.93
2022-11-20T06:37:39.887Z,38.50
2022-11-20T06:40:09.708Z,42.40
2022-11-20T06:42:38.417Z,35.03
2022-11-20T06:45:07.572Z,36.50
2022-11-20T06:47:36.165Z,35.27
2022-11-20T06:50:06.548Z,36.37
2022-11-20T06:52:39.569Z,38.83
2022-11-20T06:55:11.810Z,34.83
2022-11-20T06:57:40.258Z,39.33
2022-11-20T07:00:09.763Z,36.10
2022-11-20T07:02:38.873Z,39.27
2022-11-20T07:05:09.070Z,40.07
2022-11-20T07:07:37.686Z,36.47
2022-11-20T07:10:08.049Z,40.07
2022-11-20T07:12:36.835Z,38.47
2022-11-20T07:15:06.121Z,37.97
2022-11-20T07:17:34.610Z,36.00
2022-11-20T07:20:03.099Z,39.37
2022-11-20T07:22:33.183Z,42.43
2022-11-20T07:25:02.722Z,29.30
2022-11-20T07:27:31.860Z,31.50
2022-11-20T07:30:00.536Z,29.90
2022-11-20T07:32:29.104Z,36.27
2022-11-20T07:35:00.453Z,29.90
2022-11-20T07:37:28.917Z,33.23
2022-11-20T07:39:59.057Z,35.33
2022-11-20T07:42:28.568Z,30.00
2022-11-20T07:44:56.938Z,32.70
2022-11-20T07:47:26.294Z,32.20
2022-11-20T07:49:54.777Z,26.83
2022-11-20T07:52:23.153Z,28.27
2022-11-20T07:54:51.548Z,33.67
2022-11-20T07:57:25.637Z,26.63
2022-11-20T07:59:56.700Z,29.67
2022-11-20T08:02:25.095Z,34.13
2022-11-20T08:04:53.998Z,30.00
2022-11-20T08:07:22.678Z,23.93
2022-11-20T08:09:51.273Z,31.33
2022-11-20T08:12:40.409Z,28.97
2022-11-20T08:15:13.269Z,31.03
2022-11-20T08:17:41.946Z,24.87
2022-11-20T08:20:11.148Z,30.40
2022-11-20T08:22:39.427Z,27.40
2022-11-20T08:25:09.241Z,28.00
2022-11-20T08:27:39.049Z,28.13
2022-11-20T08:30:09.038Z,28.70
2022-11-20T08:32:38.850Z,26.97
2022-11-20T08:35:07.614Z,31.53
2022-11-20T08:37:36.079Z,27.27
2022-11-20T08:40:04.586Z,28.37
2022-11-20T08:42:33.194Z,24.70
2022-11-20T08:45:03.070Z,22.03
2022-11-20T08:47:32.306Z,27.70
2022-11-20T08:50:00.656Z,28.57
2022-11-20T08:52:29.284Z,28.30
2022-11-20T08:54:57.867Z,24.53
2022-11-20T08:57:26.194Z,25.50
2022-11-20T09:00:10.251Z,23.53
2022-11-20T09:02:40.584Z,30.90
2022-11-20T09:05:09.537Z,25.30
2022-11-20T09:07:38.090Z,23.93
2022-11-20T09:10:23.776Z,24.97
2022-11-20T09:12:54.766Z,24.63
2022-11-20T09:15:23.553Z,24.33
2022-11-20T09:17:56.474Z,69.57
2022-11-20T09:20:25.110Z,24.33
2022-11-20T09:22:53.606Z,22.00
2022-11-20T09:25:22.007Z,20.63
2022-11-20T09:28:00.097Z,21.80
2022-11-20T09:30:29.022Z,24.23
2022-11-20T09:32:59.198Z,20.70
2022-11-20T09:35:27.870Z,21.10
2022-11-20T09:37:56.260Z,19.63
2022-11-20T09:40:27.127Z,21.00
2022-11-20T09:42:59.994Z,20.17
2022-11-20T09:45:39.821Z,23.67
2022-11-20T09:48:56.675Z,21.83
2022-11-20T09:51:35.843Z,23.63
2022-11-20T09:54:16.440Z,22.57
2022-11-20T09:56:47.956Z,24.83
2022-11-20T09:59:37.968Z,22.70
2022-11-20T10:02:19.479Z,22.93
2022-11-20T10:04:55.628Z,20.97
2022-11-20T10:07:32.653Z,25.27
2022-11-20T10:10:02.330Z,24.03
2022-11-20T10:12:45.356Z,20.20
2022-11-20T10:15:27.573Z,17.63
2022-11-20T10:18:12.312Z,20.13
2022-11-20T10:20:49.720Z,26.27
2022-11-20T10:23:56.104Z,23.17
2022-11-20T10:26:29.078Z,20.30
2022-11-20T10:29:10.266Z,22.40
2022-11-20T10:31:41.758Z,21.90
2022-11-20T10:34:23.222Z,26.10
2022-11-20T10:36:58.422Z,21.60
2022-11-20T10:39:36.434Z,17.57
2022-11-20T10:42:11.355Z,21.93
2022-11-20T10:45:02.766Z,19.27
2022-11-20T10:47:34.810Z,22.33
2022-11-20T10:50:07.729Z,18.87
2022-11-20T10:52:48.791Z,18.77
2022-11-20T10:55:29.880Z,18.53
2022-11-20T10:58:04.334Z,19.60
2022-11-20T11:00:34.145Z,17.37
2022-11-20T11:03:04.324Z,21.20
2022-11-20T11:05:41.773Z,17.67
2022-11-20T11:08:16.757Z,18.57
2022-11-20T11:10:49.958Z,18.70
2022-11-20T11:13:26.386Z,17.63
2022-11-20T11:15:55.365Z,20.80
2022-11-20T11:18:28.651Z,21.33
2022-11-20T11:20:58.901Z,20.63
2022-11-20T11:23:41.652Z,23.80
2022-11-20T11:26:21.479Z,20.80
2022-11-20T11:28:56.829Z,19.70
2022-11-20T11:31:27.762Z,20.57
2022-11-20T11:34:07.615Z,19.33
2022-11-20T11:36:37.605Z,20.93
2022-11-20T11:39:13.156Z,19.13
2022-11-20T11:41:42.271Z,19.80
2022-11-20T11:44:37.282Z,18.83
2022-11-20T11:47:07.368Z,19.83
2022-11-20T11:49:36.701Z,18.00
2022-11-20T11:52:15.022Z,16.50
2022-11-20T11:54:51.533Z,19.57
2022-11-20T11:57:31.235Z,17.37
2022-11-20T12:00:05.679Z,18.40
2022-11-20T12:02:50.716Z,21.37
2022-11-20T12:05:22.698Z,20.37
2022-11-20T12:07:56.878Z,22.40
2022-11-20T12:10:39.096Z,19.43
2022-11-20T12:13:20.472Z,18.23
2022-11-20T12:15:50.678Z,17.50
2022-11-20T12:18:22.728Z,20.13
2022-11-20T12:21:04.419Z,18.87
2022-11-20T12:23:42.946Z,20.03
2022-11-20T12:26:20.708Z,16.63
2022-11-20T12:29:02.152Z,15.83
2022-11-20T12:31:51.030Z,14.03
2022-11-20T12:34:46.970Z,12.57
2022-11-20T12:37:25.735Z,11.40
2022-11-20T12:40:01.234Z,12.87
2022-11-20T12:43:03.664Z,12.30
2022-11-20T12:45:51.316Z,13.83
2022-11-20T12:48:46.408Z,12.77
2022-11-20T12:51:42.355Z,14.30
2022-11-20T12:54:34.548Z,15.70
2022-11-20T12:57:11.688Z,12.13
2022-11-20T13:00:11.089Z,16.10
2022-11-20T13:02:57.039Z,13.47
2022-11-20T13:05:33.675Z,14.03
2022-11-20T13:08:04.349Z,17.07
2022-11-20T13:10:37.137Z,14.87
2022-11-20T13:13:25.103Z,13.50
2022-11-20T13:16:00.115Z,15.20
2022-11-20T13:18:29.606Z,16.87
2022-11-20T13:20:58.034Z,19.23
2022-11-20T13:23:28.581Z,14.30
2022-11-20T13:26:07.624Z,18.60
2022-11-20T13:28:38.383Z,36.00
2022-11-20T13:31:30.751Z,18.50
2022-11-20T13:34:00.467Z,14.63
2022-11-20T13:36:31.344Z,17.67
2022-11-20T13:39:00.349Z,16.80
2022-11-20T13:41:32.564Z,16.53
2022-11-20T13:44:09.217Z,13.23
2022-11-20T13:46:42.253Z,17.07
2022-11-20T13:49:13.131Z,14.20
2022-11-20T13:51:46.722Z,17.63
2022-11-20T13:54:54.310Z,17.63
2022-11-20T13:58:04.796Z,15.13
2022-11-20T14:00:33.405Z,14.07
2022-11-20T14:03:14.140Z,16.17
2022-11-20T14:05:51.268Z,17.43
2022-11-20T14:08:29.831Z,18.20
2022-11-20T14:11:14.242Z,14.47
2022-11-20T14:13:53.143Z,12.73
2022-11-20T14:16:22.955Z,15.07
2022-11-20T14:18:53.414Z,16.80
2022-11-20T14:21:26.701Z,15.47
2022-11-20T14:23:56.854Z,15.50
2022-11-20T14:26:26.514Z,13.83
2022-11-20T14:28:56.479Z,12.67
2022-11-20T14:31:29.810Z,13.33
2022-11-20T14:34:00.307Z,11.83
2022-11-20T14:36:29.937Z,45.80
2022-11-20T14:38:58.459Z,15.23
2022-11-20T14:41:27.041Z,14.93
2022-11-20T14:43:59.309Z,15.87
2022-11-20T14:46:28.753Z,17.20
2022-11-20T14:49:02.514Z,15.00
2022-11-20T14:51:34.147Z,16.30
2022-11-20T14:54:13.371Z,17.17
2022-11-20T14:56:41.861Z,17.87
2022-11-20T14:59:10.840Z,15.53
2022-11-20T15:01:39.660Z,17.13
2022-11-20T15:04:12.541Z,18.93
2022-11-20T15:06:52.928Z,20.07
2022-11-20T15:09:21.341Z,18.43
2022-11-20T15:11:57.639Z,17.83
2022-11-20T15:14:27.688Z,35.13
2022-11-20T15:16:56.355Z,22.00
2022-11-20T15:19:27.796Z,19.33
2022-11-20T15:21:56.544Z,21.70
2022-11-20T15:24:25.409Z,21.87
2022-11-20T15:26:54.330Z,20.00
2022-11-20T15:29:23.921Z,16.13
2022-11-20T15:31:53.909Z,16.60
2022-11-20T15:34:22.537Z,18.27
2022-11-20T15:36:52.617Z,19.37
2022-11-20T15:39:21.116Z,18.30
2022-11-20T15:41:51.248Z,17.77
2022-11-20T15:44:19.864Z,18.83
2022-11-20T15:46:48.398Z,16.50
2022-11-20T15:49:19.962Z,15.67
2022-11-20T15:51:53.723Z,17.17
2022-11-20T15:54:25.107Z,19.37
2022-11-20T15:56:54.491Z,16.30
2022-11-20T15:59:23.023Z,13.43
2022-11-20T16:01:52.125Z,16.07
2022-11-20T16:04:20.970Z,15.37
2022-11-20T16:06:52.780Z,17.17
2022-11-20T16:09:21.421Z,13.90
2022-11-20T16:11:49.935Z,15.67
2022-11-20T16:14:36.042Z,16.07
2022-11-20T16:17:05.501Z,13.60
2022-11-20T16:19:33.937Z,12.67
2022-11-20T16:22:03.757Z,16.10
2022-11-20T16:24:32.543Z,14.70
2022-11-20T16:27:00.975Z,16.47
2022-11-20T16:29:29.449Z,16.07
2022-11-20T16:31:59.460Z,15.50
2022-11-20T16:34:28.116Z,16.97
2022-11-20T16:36:57.155Z,14.80
2022-11-20T16:39:27.882Z,16.47
2022-11-20T16:41:56.247Z,18.97
2022-11-20T16:44:26.390Z,16.67
2022-11-20T16:46:55.379Z,18.60
2022-11-20T16:49:24.929Z,16.13
2022-11-20T16:51:53.488Z,16.93
2022-11-20T16:54:21.911Z,18.73
2022-11-20T16:56:54.356Z,18.27
2022-11-20T16:59:24.329Z,16.13
2022-11-20T17:01:52.883Z,14.83
2022-11-20T17:04:21.741Z,16.20
2022-11-20T17:06:51.083Z,16.67
2022-11-20T17:09:19.919Z,14.67
2022-11-20T17:11:51.580Z,18.93
2022-11-20T17:14:20.083Z,19.03
2022-11-20T17:16:48.638Z,16.50
2022-11-20T17:19:17.291Z,21.77
2022-11-20T17:21:45.717Z,20.03
2022-11-20T17:24:16.420Z,20.97
2022-11-20T17:26:46.352Z,16.93
2022-11-20T17:29:17.940Z,13.97
2022-11-20T17:31:46.853Z,14.93
2022-11-20T17:34:16.691Z,15.83
2022-11-20T17:36:47.477Z,16.70
2022-11-20T17:39:17.206Z,15.13
2022-11-20T17:42:06.206Z,17.07
2022-11-20T17:44:36.301Z,17.30
2022-11-20T17:47:05.188Z,16.27
2022-11-20T17:49:33.674Z,21.30
2022-11-20T17:52:02.159Z,21.63
2022-11-20T17:54:30.595Z,24.27
2022-11-20T17:57:16.709Z,18.57
2022-11-20T17:59:46.604Z,20.60
2022-11-20T18:02:15.068Z,21.60
2022-11-20T18:04:43.657Z,22.37
2022-11-20T18:07:12.235Z,20.23
2022-11-20T18:09:40.844Z,15.30
2022-11-20T18:12:09.376Z,17.07
2022-11-20T18:14:37.848Z,15.47
2022-11-20T18:17:09.368Z,15.73
2022-11-20T18:19:47.936Z,15.60
2022-11-20T18:22:26.447Z,16.80
2022-11-20T18:24:54.885Z,15.93
2022-11-20T18:27:24.034Z,16.77
2022-11-20T18:29:52.920Z,16.60
2022-11-20T18:32:23.868Z,17.73
2022-11-20T18:34:52.985Z,15.23
2022-11-20T18:37:22.393Z,17.90
2022-11-20T18:39:50.918Z,21.53
2022-11-20T18:42:37.085Z,17.13
2022-11-20T18:45:07.623Z,16.97
2022-11-20T18:47:40.278Z,16.00
2022-11-20T18:50:10.453Z,16.80
2022-11-20T18:52:42.016Z,17.57
2022-11-20T18:55:12.771Z,18.03
2022-11-20T18:57:41.374Z,22.33
2022-11-20T19:00:11.342Z,18.50
2022-11-20T19:02:43.272Z,20.20
2022-11-20T19:05:12.640Z,18.47
2022-11-20T19:07:41.692Z,18.93
2022-11-20T19:10:10.839Z,17.53
2022-11-20T19:12:39.460Z,31.63
2022-11-20T19:15:08.701Z,26.10
2022-11-20T19:17:37.782Z,21.00
2022-11-20T19:20:09.127Z,24.40
2022-11-20T19:22:37.663Z,23.30
2022-11-20T19:25:06.997Z,21.10
2022-11-20T19:27:35.396Z,21.47
2022-11-20T19:30:04.163Z,19.53
2022-11-20T19:32:32.992Z,19.77
2022-11-20T19:35:01.368Z,23.27
2022-11-20T19:37:35.132Z,23.17
2022-11-20T19:40:04.829Z,22.57
2022-11-20T19:42:34.093Z,19.27
2022-11-20T19:45:02.656Z,18.80
2022-11-20T19:48:00.652Z,19.87
2022-11-20T19:50:20.791Z,17.33
2022-11-20T19:52:54.461Z,20.30
2022-11-20T19:55:29.124Z,21.87
2022-11-20T19:57:58.166Z,20.97
2022-11-20T20:00:32.863Z,19.63
2022-11-20T20:03:02.275Z,20.83
2022-11-20T20:05:30.926Z,16.27
2022-11-20T20:08:00.802Z,17.27
2022-11-20T20:10:29.674Z,20.50
2022-11-20T20:12:58.449Z,18.23
2022-11-20T20:15:27.349Z,19.70
2022-11-20T20:17:56.929Z,17.37
2022-11-20T20:20:26.276Z,18.93
2022-11-20T20:22:54.670Z,16.17
2022-11-20T20:25:24.554Z,18.23
2022-11-20T20:27:53.169Z,16.30
2022-11-20T20:30:21.693Z,19.00
2022-11-20T20:32:55.904Z,17.43
2022-11-20T20:35:30.547Z,16.77
2022-11-20T20:38:00.252Z,17.83
2022-11-20T20:40:30.085Z,18.37
2022-11-20T20:42:58.871Z,20.77
2022-11-20T20:45:27.340Z,19.03
2022-11-20T20:47:56.117Z,18.87
2022-11-20T20:50:26.756Z,17.50
2022-11-20T20:52:55.248Z,19.60
2022-11-20T20:55:23.673Z,20.83
2022-11-20T20:57:55.432Z,21.60
2022-11-20T21:00:24.180Z,19.23
2022-11-20T21:02:53.318Z,18.00
2022-11-20T21:05:22.721Z,19.37
2022-11-20T21:08:08.864Z,18.20
2022-11-20T21:10:38.258Z,18.80
2022-11-20T21:13:08.378Z,18.63
2022-11-20T21:15:39.680Z,17.00
2022-11-20T21:18:08.170Z,19.87
2022-11-20T21:20:54.077Z,19.00
2022-11-20T21:23:22.407Z,17.17
2022-11-20T21:25:50.876Z,16.47
2022-11-20T21:28:20.859Z,16.43
2022-11-20T21:30:49.533Z,20.00
2022-11-20T21:33:18.094Z,17.83
2022-11-20T21:35:46.555Z,16.63
2022-11-20T21:38:15.168Z,17.43
2022-11-20T21:40:43.608Z,19.67
2022-11-20T21:43:12.042Z,18.77
2022-11-20T21:45:42.415Z,18.30
2022-11-20T21:48:10.798Z,17.33
2022-11-20T21:50:39.161Z,21.23
2022-11-20T21:53:07.847Z,20.07
2022-11-20T21:55:36.339Z,20.23
2022-11-20T21:58:04.663Z,20.80
2022-11-20T22:00:33.150Z,16.77
2022-11-20T22:03:03.014Z,19.90
2022-11-20T22:05:31.486Z,17.73
2022-11-20T22:07:59.952Z,16.53
2022-11-20T22:10:29.222Z,15.50
2022-11-20T22:13:18.311Z,16.20
2022-11-20T22:16:00.243Z,16.30
2022-11-20T22:18:31.240Z,18.50
2022-11-20T22:21:05.344Z,18.13
2022-11-20T22:23:33.800Z,18.23
2022-11-20T22:26:06.558Z,22.30
2022-11-20T22:28:35.439Z,25.63
2022-11-20T22:31:06.131Z,22.50
2022-11-20T22:33:38.171Z,26.40
2022-11-20T22:36:08.380Z,25.53
2022-11-20T22:38:39.426Z,24.23
2022-11-20T22:41:09.601Z,28.67
2022-11-20T22:43:38.823Z,28.50
2022-11-20T22:46:09.424Z,25.60
2022-11-20T22:48:41.254Z,29.40
2022-11-20T22:51:11.562Z,33.23
2022-11-20T22:53:40.700Z,29.17
2022-11-20T22:56:10.629Z,133.03
2022-11-20T22:58:40.691Z,73.80
2022-11-20T23:01:11.191Z,36.63
2022-11-20T23:03:42.580Z,34.33
2022-11-20T23:06:11.822Z,33.80
2022-11-20T23:08:41.745Z,37.10
2022-11-20T23:11:12.738Z,29.67
2022-11-20T23:13:42.315Z,34.33
2022-11-20T23:16:12.242Z,34.43
2022-11-20T23:18:42.783Z,32.93
2022-11-20T23:21:12.877Z,34.53
2022-11-20T23:23:42.295Z,32.40
2022-11-20T23:26:12.405Z,33.00
2022-11-20T23:28:41.824Z,36.00
2022-11-20T23:31:11.227Z,34.37
2022-11-20T23:33:42.565Z,32.50
2022-11-20T23:36:12.073Z,31.33
2022-11-20T23:38:40.710Z,29.23
2022-11-20T23:41:10.047Z,28.73
2022-11-20T23:43:38.819Z,28.37
2022-11-20T23:46:10.442Z,30.60
2022-11-20T23:48:42.840Z,29.53
